Flugplatz - Wetter - Augsburg

[Quelle: ADDS]
METAR
EDMA 250920Z VRB02KT CAVOK 16/10 Q1020 =
TAF
EDMA 250800Z 2509/2518 07004KT CAVOK =
SR / SS: 05:11 / 17:10 UTC (Günzburg 2017-09-25)

Flugplatz - Wetter - Laupheim

[Quelle: ADDS]
METAR
ETHL 250920Z 07003KT 9999 FEW050 12/09 Q1020 BLU+BLU+ =
TAF
ETHL 250720Z 2508/2517 07003KT 6000 NSW FEW260 BECMG 2508/2509 08005KT 9999 NSW FEW030 SCT260 =

Notice: Undefined index: sun in /homepages/1/d158740339/htdocs/joomla/modules/mod_wx/tmpl/default.php on line 13

Flugplatz - Wetter - Memmingen

[Quelle: ADDS]
METAR
EDJA 250920Z 04004KT 360V120 CAVOK 14/10 Q1020 =
TAF
EDJA 250800Z 2509/2518 07005KT 3000 BCFG NSC BECMG 2509/2510 9999 =

Notice: Undefined index: sun in /homepages/1/d158740339/htdocs/joomla/modules/mod_wx/tmpl/default.php on line 13

Flugplatz - Wetter - Neuburg/Donau

[Quelle: ADDS]
METAR
ETSN 250920Z 07002KT 9999 FEW030 BKN210 13/10 Q1020 BLU+BLU+ =
TAF
ETSN 250740Z 2508/2517 07005KT 8000 NSW FEW090 SCT240 BY ETGL =

Notice: Undefined index: sun in /homepages/1/d158740339/htdocs/joomla/modules/mod_wx/tmpl/default.php on line 13

Flugplatz - Wetter - Stuttgart

[Quelle: ADDS]
METAR
EDDS 250920Z VRB02KT 9999 VCFG FEW003 12/11 Q1020 NOSIG =
TAF
COR EDDS 250537Z 2506/2606 VRB02KT 1500 BR BKN005 TEMPO 2506/2509 0200 FG BKN001 BECMG 2509/2512 9000 SCT015 BECMG 2600/2603 3500 BR TEMPO 2603/2606 1300 BCFG BKN002 =

Notice: Undefined index: sun in /homepages/1/d158740339/htdocs/joomla/modules/mod_wx/tmpl/default.php on line 13

Flugplatz - Wetter - Niederstetten

[Quelle: ADDS]
METAR
ETHN 250920Z 11005KT 9999 FEW024 15/09 Q1020 BLU+BLU+ =
TAF
ETHN 250700Z 2508/2517 09007KT 9999 NSW SCT030 =

Notice: Undefined index: sun in /homepages/1/d158740339/htdocs/joomla/modules/mod_wx/tmpl/default.php on line 13